createdAt,value
2017-12-17T00:00:53.730Z,997.40
2017-12-17T00:01:53.708Z,997.45
2017-12-17T00:02:53.734Z,997.43
2017-12-17T00:03:53.698Z,997.41
2017-12-17T00:04:53.706Z,997.43
2017-12-17T00:05:53.680Z,997.45
2017-12-17T00:06:53.676Z,997.44
2017-12-17T00:07:53.667Z,997.46
2017-12-17T00:08:53.666Z,997.47
2017-12-17T00:09:53.693Z,997.49
2017-12-17T00:10:53.650Z,997.50
2017-12-17T00:11:53.643Z,997.53
2017-12-17T00:12:53.639Z,997.53
2017-12-17T00:13:53.698Z,997.55
2017-12-17T00:14:53.629Z,997.54
2017-12-17T00:15:53.618Z,997.52
2017-12-17T00:16:53.668Z,997.53
2017-12-17T00:17:53.616Z,997.51
2017-12-17T00:18:53.625Z,997.51
2017-12-17T00:19:53.644Z,997.54
2017-12-17T00:20:53.597Z,997.55
2017-12-17T00:21:53.584Z,997.52
2017-12-17T00:22:53.584Z,997.54
2017-12-17T00:23:53.570Z,997.53
2017-12-17T00:24:53.727Z,997.50
2017-12-17T00:25:53.568Z,997.54
2017-12-17T00:26:53.548Z,997.52
2017-12-17T00:27:53.559Z,997.57
2017-12-17T00:28:53.615Z,997.53
2017-12-17T00:29:53.538Z,997.53
2017-12-17T00:30:53.540Z,997.59
2017-12-17T00:31:53.519Z,997.56
2017-12-17T00:32:54.397Z,997.62
2017-12-17T00:33:53.505Z,997.64
2017-12-17T00:34:53.499Z,997.66
2017-12-17T00:35:53.503Z,997.66
2017-12-17T00:36:53.508Z,997.67
2017-12-17T00:37:53.483Z,997.70
2017-12-17T00:38:53.495Z,997.71
2017-12-17T00:39:53.470Z,997.73
2017-12-17T00:40:53.468Z,997.76
2017-12-17T00:41:53.582Z,997.76
2017-12-17T00:42:53.448Z,997.77
2017-12-17T00:43:53.473Z,997.77
2017-12-17T00:44:53.437Z,997.79
2017-12-17T00:45:53.458Z,997.74
2017-12-17T00:46:53.456Z,997.78
2017-12-17T00:47:53.421Z,997.75
2017-12-17T00:48:53.459Z,997.81
2017-12-17T00:49:53.419Z,997.77
2017-12-17T00:50:53.400Z,997.80
2017-12-17T00:51:53.392Z,997.75
2017-12-17T00:52:53.402Z,997.80
2017-12-17T00:53:53.393Z,997.79
2017-12-17T00:54:53.389Z,997.78
2017-12-17T00:55:53.366Z,997.78
2017-12-17T00:56:53.388Z,997.83
2017-12-17T00:57:53.355Z,997.82
2017-12-17T00:58:53.350Z,997.80
2017-12-17T00:59:54.022Z,997.80
2017-12-17T01:00:53.336Z,997.81
2017-12-17T01:01:53.400Z,997.83
2017-12-17T01:02:53.357Z,997.82
2017-12-17T01:03:53.329Z,997.84
2017-12-17T01:04:53.344Z,997.84
2017-12-17T01:05:53.309Z,997.90
2017-12-17T01:06:53.305Z,997.87
2017-12-17T01:07:53.299Z,997.89
2017-12-17T01:08:53.294Z,997.92
2017-12-17T01:09:53.301Z,997.90
2017-12-17T01:10:53.287Z,997.89
2017-12-17T01:11:53.267Z,997.95
2017-12-17T01:12:53.291Z,997.98
2017-12-17T01:13:53.258Z,997.97
2017-12-17T01:14:53.248Z,998.05
2017-12-17T01:15:53.247Z,998.04
2017-12-17T01:16:53.240Z,998.05
2017-12-17T01:17:53.232Z,998.16
2017-12-17T01:18:53.251Z,998.20
2017-12-17T01:19:53.940Z,998.12
2017-12-17T01:20:53.370Z,998.21
2017-12-17T01:21:53.202Z,998.18
2017-12-17T01:22:53.198Z,998.21
2017-12-17T01:23:53.198Z,998.21
2017-12-17T01:24:53.989Z,998.24
2017-12-17T01:25:53.287Z,998.27
2017-12-17T01:26:53.224Z,998.25
2017-12-17T01:27:53.168Z,998.28
2017-12-17T01:28:53.165Z,998.27
2017-12-17T01:29:53.154Z,998.30
2017-12-17T01:30:53.171Z,998.26
2017-12-17T01:31:53.156Z,998.26
2017-12-17T01:32:53.136Z,998.22
2017-12-17T01:33:53.187Z,998.25
2017-12-17T01:34:53.135Z,998.27
2017-12-17T01:35:53.160Z,998.26
2017-12-17T01:36:53.116Z,998.25
2017-12-17T01:37:53.103Z,998.26
2017-12-17T01:38:53.098Z,998.25
2017-12-17T01:39:53.089Z,998.27
2017-12-17T01:40:53.080Z,998.24
2017-12-17T01:41:53.079Z,998.27
2017-12-17T01:42:53.071Z,998.24
2017-12-17T01:43:53.064Z,998.23
2017-12-17T01:44:53.058Z,998.23
2017-12-17T01:45:53.049Z,998.28
2017-12-17T01:46:53.041Z,998.25
2017-12-17T01:47:53.039Z,998.25
2017-12-17T01:48:53.086Z,998.32
2017-12-17T01:49:53.020Z,998.29
2017-12-17T01:50:53.912Z,998.32
2017-12-17T01:51:53.059Z,998.27
2017-12-17T01:52:53.002Z,998.26
2017-12-17T01:53:52.996Z,998.33
2017-12-17T01:54:53.012Z,998.30
2017-12-17T01:55:52.991Z,998.31
2017-12-17T01:56:52.975Z,998.27
2017-12-17T01:57:52.976Z,998.28
2017-12-17T01:58:53.010Z,998.34
2017-12-17T01:59:52.954Z,998.32
2017-12-17T02:00:52.948Z,998.35
2017-12-17T02:01:52.942Z,998.34
2017-12-17T02:02:52.940Z,998.43
2017-12-17T02:03:52.985Z,998.44
2017-12-17T02:04:52.921Z,998.38
2017-12-17T02:05:52.915Z,998.39
2017-12-17T02:06:52.907Z,998.35
2017-12-17T02:07:52.978Z,998.32
2017-12-17T02:08:52.925Z,998.31
2017-12-17T02:09:52.890Z,998.36
2017-12-17T02:10:52.890Z,998.34
2017-12-17T02:11:52.875Z,998.37
2017-12-17T02:12:52.875Z,998.38
2017-12-17T02:13:52.862Z,998.44
2017-12-17T02:14:52.855Z,998.35
2017-12-17T02:15:52.848Z,998.43
2017-12-17T02:16:52.856Z,998.44
2017-12-17T02:17:52.836Z,998.39
2017-12-17T02:18:52.899Z,998.41
2017-12-17T02:19:52.821Z,998.38
2017-12-17T02:20:52.818Z,998.38
2017-12-17T02:21:52.809Z,998.38
2017-12-17T02:22:52.801Z,998.38
2017-12-17T02:23:52.802Z,998.40
2017-12-17T02:24:52.790Z,998.38
2017-12-17T02:25:52.781Z,998.43
2017-12-17T02:26:52.772Z,998.41
2017-12-17T02:27:52.769Z,998.42
2017-12-17T02:28:52.763Z,998.43
2017-12-17T02:29:52.757Z,998.40
2017-12-17T02:30:52.748Z,998.43
2017-12-17T02:31:52.742Z,998.48
2017-12-17T02:32:52.734Z,998.42
2017-12-17T02:33:52.727Z,998.46
2017-12-17T02:34:52.742Z,998.47
2017-12-17T02:35:52.716Z,998.47
2017-12-17T02:36:52.707Z,998.50
2017-12-17T02:37:52.705Z,998.49
2017-12-17T02:38:52.693Z,998.47
2017-12-17T02:39:52.689Z,998.49
2017-12-17T02:40:52.682Z,998.52
2017-12-17T02:41:52.696Z,998.50
2017-12-17T02:42:52.667Z,998.54
2017-12-17T02:43:52.667Z,998.56
2017-12-17T02:44:52.657Z,998.54
2017-12-17T02:45:52.650Z,998.50
2017-12-17T02:46:52.642Z,998.54
2017-12-17T02:47:52.636Z,998.52
2017-12-17T02:48:52.631Z,998.53
2017-12-17T02:49:52.624Z,998.51
2017-12-17T02:50:52.670Z,998.53
2017-12-17T02:51:52.608Z,998.53
2017-12-17T02:52:52.629Z,998.57
2017-12-17T02:53:52.596Z,998.57
2017-12-17T02:54:52.589Z,998.56
2017-12-17T02:55:52.582Z,998.53
2017-12-17T02:56:52.577Z,998.56
2017-12-17T02:57:52.570Z,998.58
2017-12-17T02:58:52.565Z,998.58
2017-12-17T02:59:52.557Z,998.57
2017-12-17T03:00:52.554Z,998.55
2017-12-17T03:01:52.555Z,998.63
2017-12-17T03:02:52.541Z,998.60
2017-12-17T03:03:52.529Z,998.58
2017-12-17T03:04:52.522Z,998.65
2017-12-17T03:05:52.564Z,998.62
2017-12-17T03:06:52.515Z,998.67
2017-12-17T03:07:53.449Z,998.61
2017-12-17T03:08:52.500Z,998.56
2017-12-17T03:09:52.489Z,998.60
2017-12-17T03:10:52.482Z,998.58
2017-12-17T03:11:52.476Z,998.60
2017-12-17T03:12:52.468Z,998.60
2017-12-17T03:13:52.462Z,998.56
2017-12-17T03:14:52.458Z,998.59
2017-12-17T03:15:52.451Z,998.57
2017-12-17T03:16:52.442Z,998.59
2017-12-17T03:17:52.437Z,998.57
2017-12-17T03:18:52.427Z,998.59
2017-12-17T03:19:52.423Z,998.64
2017-12-17T03:20:52.416Z,998.66
2017-12-17T03:21:52.411Z,998.67
2017-12-17T03:22:52.550Z,998.68
2017-12-17T03:23:52.417Z,998.75
2017-12-17T03:24:52.971Z,998.77
2017-12-17T03:25:52.384Z,998.75
2017-12-17T03:26:52.390Z,998.81
2017-12-17T03:27:52.369Z,998.73
2017-12-17T03:28:52.369Z,998.74
2017-12-17T03:29:52.360Z,998.77
2017-12-17T03:30:52.351Z,998.79
2017-12-17T03:31:52.470Z,998.80
2017-12-17T03:32:52.338Z,998.84
2017-12-17T03:33:52.330Z,998.85
2017-12-17T03:34:52.323Z,998.89
2017-12-17T03:35:52.316Z,998.91
2017-12-17T03:36:52.310Z,998.92
2017-12-17T03:37:52.308Z,998.93
2017-12-17T03:38:52.297Z,998.94
2017-12-17T03:39:52.290Z,998.97
2017-12-17T03:40:52.282Z,998.99
2017-12-17T03:41:52.276Z,998.95
2017-12-17T03:42:54.094Z,998.99
2017-12-17T03:43:52.304Z,998.99
2017-12-17T03:44:52.346Z,998.98
2017-12-17T03:45:52.922Z,998.99
2017-12-17T03:46:52.245Z,999.02
2017-12-17T03:47:52.235Z,999.08
2017-12-17T03:48:52.227Z,999.05
2017-12-17T03:49:52.220Z,999.09
2017-12-17T03:50:52.216Z,999.07
2017-12-17T03:51:52.210Z,999.05
2017-12-17T03:52:52.201Z,999.08
2017-12-17T03:53:52.196Z,999.12
2017-12-17T03:54:52.186Z,999.17
2017-12-17T03:55:52.185Z,999.15
2017-12-17T03:56:52.179Z,999.17
2017-12-17T03:57:52.171Z,999.18
2017-12-17T03:58:52.164Z,999.19
2017-12-17T03:59:52.153Z,999.13
2017-12-17T04:00:52.147Z,999.17
2017-12-17T04:01:52.142Z,999.14
2017-12-17T04:02:52.150Z,999.13
2017-12-17T04:03:52.131Z,999.18
2017-12-17T04:04:52.122Z,999.19
2017-12-17T04:05:52.115Z,999.14
2017-12-17T04:06:52.108Z,999.13
2017-12-17T04:07:52.103Z,999.14
2017-12-17T04:08:52.094Z,999.17
2017-12-17T04:09:52.088Z,999.10
2017-12-17T04:10:52.081Z,999.17
2017-12-17T04:11:52.075Z,999.11
2017-12-17T04:12:52.067Z,999.08
2017-12-17T04:13:52.061Z,999.04
2017-12-17T04:14:52.057Z,999.10
2017-12-17T04:15:52.113Z,999.06
2017-12-17T04:16:52.039Z,999.08
2017-12-17T04:17:52.091Z,999.09
2017-12-17T04:18:52.031Z,999.11
2017-12-17T04:19:52.021Z,999.14
2017-12-17T04:20:52.014Z,999.15
2017-12-17T04:21:52.010Z,999.16
2017-12-17T04:22:52.000Z,999.15
2017-12-17T04:23:51.991Z,999.11
2017-12-17T04:24:51.989Z,999.16
2017-12-17T04:25:51.980Z,999.21
2017-12-17T04:26:51.974Z,999.21
2017-12-17T04:27:51.965Z,999.19
2017-12-17T04:28:51.960Z,999.19
2017-12-17T04:29:51.951Z,999.22
2017-12-17T04:30:51.945Z,999.22
2017-12-17T04:31:51.938Z,999.27
2017-12-17T04:32:51.932Z,999.26
2017-12-17T04:33:51.930Z,999.25
2017-12-17T04:34:51.918Z,999.24
2017-12-17T04:35:51.908Z,999.23
2017-12-17T04:36:51.901Z,999.29
2017-12-17T04:37:51.896Z,999.34
2017-12-17T04:38:51.889Z,999.33
2017-12-17T04:39:51.881Z,999.36
2017-12-17T04:40:51.878Z,999.37
2017-12-17T04:41:51.869Z,999.29
2017-12-17T04:42:51.860Z,999.38
2017-12-17T04:43:51.851Z,999.38
2017-12-17T04:44:51.847Z,999.38
2017-12-17T04:45:51.846Z,999.35
2017-12-17T04:46:51.832Z,999.41
2017-12-17T04:47:51.844Z,999.39
2017-12-17T04:48:51.819Z,999.42
2017-12-17T04:49:51.814Z,999.41
2017-12-17T04:50:51.804Z,999.42
2017-12-17T04:51:51.804Z,999.44
2017-12-17T04:52:51.791Z,999.41
2017-12-17T04:53:51.784Z,999.45
2017-12-17T04:54:51.776Z,999.43
2017-12-17T04:55:51.768Z,999.44
2017-12-17T04:56:51.764Z,999.44
2017-12-17T04:57:51.764Z,999.46
2017-12-17T04:58:51.748Z,999.49
2017-12-17T04:59:51.740Z,999.53
2017-12-17T05:00:51.737Z,999.50
2017-12-17T05:01:51.727Z,999.47
2017-12-17T05:02:51.720Z,999.52
2017-12-17T05:03:51.715Z,999.53
2017-12-17T05:04:51.709Z,999.58
2017-12-17T05:05:51.702Z,999.51
2017-12-17T05:06:51.691Z,999.53
2017-12-17T05:07:51.694Z,999.52
2017-12-17T05:08:51.678Z,999.57
2017-12-17T05:09:51.671Z,999.52
2017-12-17T05:10:51.665Z,999.54
2017-12-17T05:11:51.656Z,999.52
2017-12-17T05:12:51.651Z,999.52
2017-12-17T05:13:51.642Z,999.53
2017-12-17T05:14:51.635Z,999.50
2017-12-17T05:15:51.627Z,999.54
2017-12-17T05:16:51.621Z,999.58
2017-12-17T05:17:52.546Z,999.56
2017-12-17T05:18:51.608Z,999.53
2017-12-17T05:19:51.602Z,999.55
2017-12-17T05:20:51.597Z,999.56
2017-12-17T05:21:51.589Z,999.58
2017-12-17T05:22:51.579Z,999.56
2017-12-17T05:23:51.573Z,999.60
2017-12-17T05:24:51.563Z,999.53
2017-12-17T05:25:51.557Z,999.59
2017-12-17T05:26:51.552Z,999.66
2017-12-17T05:27:51.543Z,999.64
2017-12-17T05:28:51.538Z,999.67
2017-12-17T05:29:51.534Z,999.69
2017-12-17T05:30:51.524Z,999.73
2017-12-17T05:31:51.515Z,999.67
2017-12-17T05:32:51.508Z,999.69
2017-12-17T05:33:51.500Z,999.69
2017-12-17T05:34:51.504Z,999.71
2017-12-17T05:35:51.488Z,999.72
2017-12-17T05:36:51.482Z,999.75
2017-12-17T05:37:51.483Z,999.70
2017-12-17T05:38:51.464Z,999.77
2017-12-17T05:39:51.461Z,999.77
2017-12-17T05:40:51.452Z,999.78
2017-12-17T05:41:51.447Z,999.79
2017-12-17T05:42:51.439Z,999.82
2017-12-17T05:43:51.434Z,999.78
2017-12-17T05:44:51.427Z,999.80
2017-12-17T05:45:51.419Z,999.83
2017-12-17T05:46:51.413Z,999.82
2017-12-17T05:47:51.409Z,999.81
2017-12-17T05:48:51.398Z,999.84
2017-12-17T05:49:51.397Z,999.85
2017-12-17T05:50:51.385Z,999.87
2017-12-17T05:51:51.377Z,999.80
2017-12-17T05:52:51.371Z,999.82
2017-12-17T05:53:51.368Z,999.79
2017-12-17T05:54:51.358Z,999.81
2017-12-17T05:55:51.358Z,999.80
2017-12-17T05:56:51.344Z,999.89
2017-12-17T05:57:51.336Z,999.89
2017-12-17T05:58:51.334Z,999.86
2017-12-17T05:59:51.322Z,999.89
2017-12-17T06:00:51.317Z,999.91
2017-12-17T06:01:51.310Z,999.94
2017-12-17T06:02:51.302Z,999.97
2017-12-17T06:03:51.296Z,999.90
2017-12-17T06:04:51.291Z,999.91
2017-12-17T06:05:51.285Z,999.92
2017-12-17T06:06:51.274Z,999.86
2017-12-17T06:07:51.271Z,999.93
2017-12-17T06:08:51.261Z,999.87
2017-12-17T06:09:51.254Z,999.87
2017-12-17T06:10:51.246Z,999.88
2017-12-17T06:11:51.240Z,999.89
2017-12-17T06:12:51.236Z,999.91
2017-12-17T06:13:51.226Z,999.89
2017-12-17T06:14:51.221Z,999.90
2017-12-17T06:15:51.219Z,999.90
2017-12-17T06:16:51.207Z,999.92
2017-12-17T06:17:51.202Z,999.91
2017-12-17T06:18:51.194Z,999.99
2017-12-17T06:19:51.185Z,1000.00
2017-12-17T06:20:51.180Z,1000.04
2017-12-17T06:21:51.175Z,1000.05
2017-12-17T06:22:51.165Z,1000.07
2017-12-17T06:23:51.160Z,1000.01
2017-12-17T06:24:51.153Z,1000.04
2017-12-17T06:25:51.145Z,1000.08
2017-12-17T06:26:51.140Z,1000.06
2017-12-17T06:27:51.130Z,1000.12
2017-12-17T06:28:51.123Z,1000.19
2017-12-17T06:29:51.118Z,1000.12
2017-12-17T06:30:51.115Z,1000.16
2017-12-17T06:31:51.103Z,1000.14
2017-12-17T06:32:51.096Z,1000.14
2017-12-17T06:33:51.095Z,1000.19
2017-12-17T06:34:51.084Z,1000.24
2017-12-17T06:35:51.075Z,1000.26
2017-12-17T06:36:51.070Z,1000.24
2017-12-17T06:37:51.065Z,1000.28
2017-12-17T06:38:51.056Z,1000.26
2017-12-17T06:39:51.053Z,1000.30
2017-12-17T06:40:51.044Z,1000.28
2017-12-17T06:41:51.034Z,1000.33
2017-12-17T06:42:51.027Z,1000.33
2017-12-17T06:43:51.020Z,1000.30
2017-12-17T06:44:51.013Z,1000.36
2017-12-17T06:45:51.012Z,1000.35
2017-12-17T06:46:51.000Z,1000.32
2017-12-17T06:47:50.993Z,1000.36
2017-12-17T06:48:50.986Z,1000.40
2017-12-17T06:49:50.982Z,1000.43
2017-12-17T06:50:50.971Z,1000.43
2017-12-17T06:51:50.968Z,1000.47
2017-12-17T06:52:50.961Z,1000.47
2017-12-17T06:53:50.955Z,1000.49
2017-12-17T06:54:50.950Z,1000.50
2017-12-17T06:55:50.939Z,1000.46
2017-12-17T06:56:50.933Z,1000.49
2017-12-17T06:57:50.925Z,1000.44
2017-12-17T06:58:50.952Z,1000.49
2017-12-17T06:59:50.911Z,1000.50
2017-12-17T07:00:50.903Z,1000.47
2017-12-17T07:01:50.897Z,1000.54
2017-12-17T07:02:50.889Z,1000.56
2017-12-17T07:03:50.891Z,1000.58
2017-12-17T07:04:50.955Z,1000.62
2017-12-17T07:05:50.872Z,1000.66
2017-12-17T07:06:50.862Z,1000.67
2017-12-17T07:07:50.857Z,1000.67
2017-12-17T07:08:50.850Z,1000.73
2017-12-17T07:09:50.842Z,1000.74
2017-12-17T07:10:50.834Z,1000.79
2017-12-17T07:11:50.827Z,1000.76
2017-12-17T07:12:50.822Z,1000.71
2017-12-17T07:13:50.815Z,1000.77
2017-12-17T07:14:50.808Z,1000.75
2017-12-17T07:15:50.800Z,1000.77
2017-12-17T07:16:50.794Z,1000.77
2017-12-17T07:17:50.790Z,1000.79
2017-12-17T07:18:50.782Z,1000.81
2017-12-17T07:19:50.775Z,1000.83
2017-12-17T07:20:50.770Z,1000.83
2017-12-17T07:21:50.762Z,1000.89
2017-12-17T07:22:50.752Z,1000.86
2017-12-17T07:23:50.747Z,1000.89
2017-12-17T07:24:50.738Z,1000.92
2017-12-17T07:25:50.732Z,1000.91
2017-12-17T07:26:50.726Z,1000.95
2017-12-17T07:27:50.719Z,1000.99
2017-12-17T07:28:50.714Z,1000.98
2017-12-17T07:29:50.715Z,1001.00
2017-12-17T07:30:50.698Z,1001.04
2017-12-17T07:31:50.691Z,1001.01
2017-12-17T07:32:50.685Z,1001.02
2017-12-17T07:33:50.680Z,1001.01
2017-12-17T07:34:50.672Z,1001.00
2017-12-17T07:35:50.667Z,1001.03
2017-12-17T07:36:50.657Z,1001.01
2017-12-17T07:37:50.654Z,1000.98
2017-12-17T07:38:50.643Z,1001.01
2017-12-17T07:39:50.639Z,1000.97
2017-12-17T07:40:50.632Z,1001.02
2017-12-17T07:41:50.626Z,1001.03
2017-12-17T07:42:50.618Z,1001.05
2017-12-17T07:43:50.625Z,1001.05
2017-12-17T07:44:50.606Z,1001.09
2017-12-17T07:45:50.599Z,1001.11
2017-12-17T07:46:50.590Z,1001.18
2017-12-17T07:47:50.589Z,1001.15
2017-12-17T07:48:50.579Z,1001.15
2017-12-17T07:49:50.607Z,1001.18
2017-12-17T07:50:50.565Z,1001.24
2017-12-17T07:51:50.558Z,1001.20
2017-12-17T07:52:50.551Z,1001.18
2017-12-17T07:53:50.544Z,1001.18
2017-12-17T07:54:50.537Z,1001.22
2017-12-17T07:55:50.535Z,1001.20
2017-12-17T07:56:50.524Z,1001.21
2017-12-17T07:57:50.520Z,1001.25
2017-12-17T07:58:50.515Z,1001.27
2017-12-17T07:59:50.506Z,1001.22
2017-12-17T08:00:50.500Z,1001.29
2017-12-17T08:01:50.492Z,1001.29
2017-12-17T08:02:50.486Z,1001.28
2017-12-17T08:03:50.481Z,1001.33
2017-12-17T08:04:50.470Z,1001.34
2017-12-17T08:05:50.464Z,1001.35
2017-12-17T08:06:50.457Z,1001.39
2017-12-17T08:07:50.451Z,1001.42
2017-12-17T08:08:50.446Z,1001.40
2017-12-17T08:09:50.436Z,1001.43
2017-12-17T08:10:50.429Z,1001.40
2017-12-17T08:11:50.422Z,1001.39
2017-12-17T08:12:50.422Z,1001.44
2017-12-17T08:13:50.410Z,1001.43
2017-12-17T08:14:50.402Z,1001.43
2017-12-17T08:15:50.394Z,1001.46
2017-12-17T08:16:50.389Z,1001.49
2017-12-17T08:17:50.385Z,1001.50
2017-12-17T08:18:50.374Z,1001.53
2017-12-17T08:19:50.370Z,1001.50
2017-12-17T08:20:50.361Z,1001.55
2017-12-17T08:21:50.362Z,1001.52
2017-12-17T08:22:50.348Z,1001.60
2017-12-17T08:23:50.342Z,1001.61
2017-12-17T08:24:50.333Z,1001.62
2017-12-17T08:25:50.331Z,1001.59
2017-12-17T08:26:50.321Z,1001.65
2017-12-17T08:27:50.314Z,1001.62
2017-12-17T08:28:50.309Z,1001.67
2017-12-17T08:29:50.302Z,1001.74
2017-12-17T08:30:50.300Z,1001.72
2017-12-17T08:31:50.289Z,1001.72
2017-12-17T08:32:50.282Z,1001.66
2017-12-17T08:33:50.275Z,1001.73
2017-12-17T08:34:50.284Z,1001.69
2017-12-17T08:35:50.263Z,1001.70
2017-12-17T08:36:50.255Z,1001.73
2017-12-17T08:37:50.248Z,1001.72
2017-12-17T08:38:50.240Z,1001.72
2017-12-17T08:39:50.241Z,1001.75
2017-12-17T08:40:50.228Z,1001.71
2017-12-17T08:41:50.222Z,1001.74
2017-12-17T08:42:50.213Z,1001.75
2017-12-17T08:43:50.210Z,1001.73
2017-12-17T08:44:50.202Z,1001.75
2017-12-17T08:45:50.197Z,1001.73
2017-12-17T08:46:50.194Z,1001.73
2017-12-17T08:47:50.181Z,1001.74
2017-12-17T08:48:50.175Z,1001.77
2017-12-17T08:49:50.167Z,1001.78
2017-12-17T08:50:50.162Z,1001.80
2017-12-17T08:51:50.155Z,1001.86
2017-12-17T08:52:50.149Z,1001.88
2017-12-17T08:53:50.145Z,1001.87
2017-12-17T08:54:50.138Z,1001.90
2017-12-17T08:55:50.131Z,1001.90
2017-12-17T08:56:50.122Z,1001.91
2017-12-17T08:57:50.119Z,1001.86
2017-12-17T08:58:50.113Z,1001.88
2017-12-17T08:59:50.104Z,1001.93
2017-12-17T09:00:50.133Z,1001.95
2017-12-17T09:01:50.096Z,1001.93
2017-12-17T09:02:50.093Z,1001.98
2017-12-17T09:03:50.079Z,1002.00
2017-12-17T09:04:50.074Z,1001.98
2017-12-17T09:05:50.064Z,1001.96
2017-12-17T09:06:50.058Z,1002.00
2017-12-17T09:07:50.051Z,1002.04
2017-12-17T09:08:50.044Z,1002.06
2017-12-17T09:09:50.039Z,1002.06
2017-12-17T09:10:50.033Z,1002.07
2017-12-17T09:11:50.026Z,1002.04
2017-12-17T09:12:50.020Z,1002.07
2017-12-17T09:13:50.982Z,1002.04
2017-12-17T09:14:50.975Z,1002.04
2017-12-17T09:15:50.972Z,1002.03
2017-12-17T09:16:52.001Z,1002.09
2017-12-17T09:17:51.477Z,1002.05
2017-12-17T09:18:49.982Z,1002.11
2017-12-17T09:19:49.975Z,1002.09
2017-12-17T09:20:50.925Z,1002.06
2017-12-17T09:21:50.961Z,1002.17
2017-12-17T09:22:50.938Z,1002.14
2017-12-17T09:23:51.051Z,1002.05
2017-12-17T09:24:50.947Z,1002.12
2017-12-17T09:25:49.992Z,1002.08
2017-12-17T09:26:50.971Z,1002.13
2017-12-17T09:27:50.942Z,1002.13
2017-12-17T09:28:50.974Z,1002.19
2017-12-17T09:29:49.910Z,1002.19
2017-12-17T09:30:49.904Z,1002.22
2017-12-17T09:31:49.922Z,1002.29
2017-12-17T09:32:49.891Z,1002.23
2017-12-17T09:33:49.884Z,1002.24
2017-12-17T09:34:49.877Z,1002.26
2017-12-17T09:35:49.870Z,1002.27
2017-12-17T09:36:49.864Z,1002.22
2017-12-17T09:37:49.868Z,1002.25
2017-12-17T09:38:49.851Z,1002.18
2017-12-17T09:39:49.846Z,1002.24
2017-12-17T09:40:49.840Z,1002.22
2017-12-17T09:41:49.832Z,1002.23
2017-12-17T09:42:49.825Z,1002.32
2017-12-17T09:43:49.824Z,1002.31
2017-12-17T09:44:49.821Z,1002.28
2017-12-17T09:45:49.810Z,1002.34
2017-12-17T09:46:49.801Z,1002.35
2017-12-17T09:47:49.802Z,1002.31
2017-12-17T09:48:49.789Z,1002.30
2017-12-17T09:49:49.781Z,1002.35
2017-12-17T09:50:49.775Z,1002.33
2017-12-17T09:51:49.769Z,1002.35
2017-12-17T09:52:49.764Z,1002.35
2017-12-17T09:53:49.756Z,1002.38
2017-12-17T09:54:49.753Z,1002.35
2017-12-17T09:55:49.743Z,1002.36
2017-12-17T09:56:49.738Z,1002.36
2017-12-17T09:57:49.730Z,1002.34
2017-12-17T09:58:49.738Z,1002.36
2017-12-17T09:59:49.717Z,1002.35
2017-12-17T10:00:49.710Z,1002.32
2017-12-17T10:01:49.738Z,1002.35
2017-12-17T10:02:49.705Z,1002.33
2017-12-17T10:03:49.698Z,1002.35
2017-12-17T10:04:49.692Z,1002.34
2017-12-17T10:05:49.680Z,1002.31
2017-12-17T10:06:49.674Z,1002.48
2017-12-17T10:07:49.666Z,1002.36
2017-12-17T10:08:49.662Z,1002.35
2017-12-17T10:09:49.655Z,1002.34
2017-12-17T10:10:49.649Z,1002.34
2017-12-17T10:11:49.655Z,1002.36
2017-12-17T10:12:49.639Z,1002.35
2017-12-17T10:13:49.641Z,1002.42
2017-12-17T10:14:49.620Z,1002.36
2017-12-17T10:15:49.616Z,1002.38
2017-12-17T10:16:49.614Z,1002.36
2017-12-17T10:17:49.600Z,1002.34
2017-12-17T10:18:49.595Z,1002.29
2017-12-17T10:19:49.595Z,1002.30
2017-12-17T10:20:49.583Z,1002.29
2017-12-17T10:21:49.576Z,1002.31
2017-12-17T10:22:49.581Z,1002.30
2017-12-17T10:23:49.582Z,1002.33
2017-12-17T10:24:49.576Z,1002.28
2017-12-17T10:25:49.565Z,1002.37
2017-12-17T10:26:49.599Z,1002.43
2017-12-17T10:27:50.479Z,1002.40
2017-12-17T10:28:49.622Z,1002.42
2017-12-17T10:29:49.525Z,1002.46
2017-12-17T10:30:49.519Z,1002.39
2017-12-17T10:31:49.511Z,1002.44
2017-12-17T10:32:49.505Z,1002.41
2017-12-17T10:33:49.503Z,1002.42
2017-12-17T10:34:49.490Z,1002.38
2017-12-17T10:35:49.485Z,1002.49
2017-12-17T10:36:49.478Z,1002.50
2017-12-17T10:37:49.474Z,1002.41
2017-12-17T10:38:49.467Z,1002.42
2017-12-17T10:39:49.459Z,1002.44
2017-12-17T10:40:49.454Z,1002.41
2017-12-17T10:41:49.447Z,1002.44
2017-12-17T10:42:49.439Z,1002.44
2017-12-17T10:43:49.435Z,1002.44
2017-12-17T10:44:49.428Z,1002.42
2017-12-17T10:45:49.423Z,1002.43
2017-12-17T10:46:49.414Z,1002.49
2017-12-17T10:47:49.413Z,1002.44
2017-12-17T10:48:49.404Z,1002.44
2017-12-17T10:49:49.396Z,1002.45
2017-12-17T10:50:49.390Z,1002.45
2017-12-17T10:51:49.384Z,1002.42
2017-12-17T10:52:49.379Z,1002.45
2017-12-17T10:53:49.372Z,1002.53
2017-12-17T10:54:49.367Z,1002.44
2017-12-17T10:55:49.362Z,1002.50
2017-12-17T10:56:49.352Z,1002.45
2017-12-17T10:57:49.361Z,1002.50
2017-12-17T10:58:49.346Z,1002.47
2017-12-17T10:59:49.338Z,1002.50
2017-12-17T11:00:49.333Z,1002.47
2017-12-17T11:01:49.380Z,1002.48
2017-12-17T11:02:49.340Z,1002.43
2017-12-17T11:03:49.308Z,1002.46
2017-12-17T11:04:49.306Z,1002.44
2017-12-17T11:05:49.300Z,1002.39
2017-12-17T11:06:49.294Z,1002.35
2017-12-17T11:07:49.284Z,1002.45
2017-12-17T11:08:49.276Z,1002.42
2017-12-17T11:09:49.277Z,1002.45
2017-12-17T11:10:49.262Z,1002.32
2017-12-17T11:11:49.268Z,1002.47
2017-12-17T11:12:49.260Z,1002.43
2017-12-17T11:13:49.244Z,1002.41
2017-12-17T11:14:49.239Z,1002.43
2017-12-17T11:15:49.232Z,1002.43
2017-12-17T11:16:49.236Z,1002.45
2017-12-17T11:17:49.218Z,1002.39
2017-12-17T11:18:49.215Z,1002.37
2017-12-17T11:19:49.205Z,1002.38
2017-12-17T11:20:49.198Z,1002.40
2017-12-17T11:21:49.194Z,1002.42
2017-12-17T11:22:49.213Z,1002.47
2017-12-17T11:23:49.178Z,1002.42
2017-12-17T11:24:49.174Z,1002.43
2017-12-17T11:25:49.173Z,1002.44
2017-12-17T11:26:49.161Z,1002.49
2017-12-17T11:27:49.152Z,1002.44
2017-12-17T11:28:49.148Z,1002.41
2017-12-17T11:29:49.143Z,1002.52
2017-12-17T11:30:49.135Z,1002.49
2017-12-17T11:31:49.127Z,1002.43
2017-12-17T11:32:49.122Z,1002.51
2017-12-17T11:33:49.124Z,1002.50
2017-12-17T11:34:49.107Z,1002.46
2017-12-17T11:35:49.102Z,1002.51
2017-12-17T11:36:49.095Z,1002.53
2017-12-17T11:37:49.088Z,1002.47
2017-12-17T11:38:49.087Z,1002.48
2017-12-17T11:39:49.076Z,1002.53
2017-12-17T11:40:49.074Z,1002.51
2017-12-17T11:41:49.063Z,1002.49
2017-12-17T11:42:49.057Z,1002.50
2017-12-17T11:43:49.050Z,1002.67
2017-12-17T11:44:49.048Z,1002.61
2017-12-17T11:45:49.039Z,1002.65
2017-12-17T11:46:49.033Z,1002.61
2017-12-17T11:47:49.025Z,1002.59
2017-12-17T11:48:49.019Z,1002.66
2017-12-17T11:49:49.014Z,1002.63
2017-12-17T11:50:49.027Z,1002.65
2017-12-17T11:51:49.004Z,1002.64
2017-12-17T11:52:48.996Z,1002.66
2017-12-17T11:53:48.994Z,1002.69
2017-12-17T11:54:49.007Z,1002.74
2017-12-17T11:55:48.978Z,1002.75
2017-12-17T11:56:48.979Z,1002.62
2017-12-17T11:57:49.011Z,1002.75
2017-12-17T11:58:48.969Z,1002.69
2017-12-17T11:59:48.959Z,1002.69
2017-12-17T12:00:48.944Z,1002.70
2017-12-17T12:01:48.941Z,1002.67
2017-12-17T12:02:48.938Z,1002.69
2017-12-17T12:03:48.948Z,1002.72
2017-12-17T12:04:48.921Z,1002.69
2017-12-17T12:05:48.914Z,1002.76
2017-12-17T12:06:48.936Z,1002.70
2017-12-17T12:07:48.967Z,1002.77
2017-12-17T12:08:48.896Z,1002.75
2017-12-17T12:09:48.892Z,1002.72
2017-12-17T12:10:48.882Z,1002.70
2017-12-17T12:11:48.877Z,1002.72
2017-12-17T12:12:48.945Z,1002.70
2017-12-17T12:13:48.905Z,1002.73
2017-12-17T12:14:48.882Z,1002.75
2017-12-17T12:15:48.852Z,1002.75
2017-12-17T12:16:48.847Z,1002.78
2017-12-17T12:17:48.850Z,1002.75